Time;durP1;ratioP1;P1;durP2;ratioP2;P2;SDS_P1;SDS_P2;PMS_P1;PMS_P2;Temp;Humidity;BMP_temperature;BMP_pressure;BME280_temperature;BME280_humidity;BME280_pressure;Samples;Min_cycle;Max_cycle;Signal;HPM_P1;HPM_P2
2021/03/16 00:00:09;;;;;;;4.93;2.63;;;17.50;45.20;;;;;;4863360;29;20236;-82
2021/03/16 00:02:36;;;;;;;2.70;2.00;;;17.50;45.20;;;;;;4863754;29;20172;-82
2021/03/16 00:05:04;;;;;;;4.80;2.60;;;17.40;45.20;;;;;;4847590;29;20248;-82
2021/03/16 00:07:31;;;;;;;3.80;2.67;;;17.40;45.30;;;;;;4863874;29;20522;-81
2021/03/16 00:09:57;;;;;;;3.22;2.20;;;17.40;45.30;;;;;;4863884;29;20169;-82
2021/03/16 00:12:23;;;;;;;2.45;1.92;;;17.40;45.30;;;;;;4878533;29;20217;-82
2021/03/16 00:14:49;;;;;;;4.75;2.70;;;17.40;45.30;;;;;;4878406;29;20161;-81
2021/03/16 00:17:17;;;;;;;4.85;2.10;;;17.40;45.50;;;;;;4847992;29;20169;-82
2021/03/16 00:19:45;;;;;;;6.85;2.88;;;17.40;45.40;;;;;;4848322;29;20237;-82
2021/03/16 00:22:16;;;;;;;3.70;2.33;;;17.40;45.40;;;;;;4878666;29;20157;-82
2021/03/16 00:24:43;;;;;;;2.88;2.20;;;17.40;45.40;;;;;;4866435;29;20192;-82
2021/03/16 00:27:08;;;;;;;4.65;2.33;;;17.40;45.30;;;;;;4882248;29;20193;-81
2021/03/16 00:29:35;;;;;;;4.93;2.42;;;17.40;45.20;;;;;;4882475;29;20165;-82
2021/03/16 00:32:01;;;;;;;4.70;2.40;;;17.40;45.30;;;;;;4866314;29;20228;-82
2021/03/16 00:34:29;;;;;;;3.35;2.10;;;17.40;45.40;;;;;;4851326;29;20193;-82
2021/03/16 00:36:57;;;;;;;5.78;2.40;;;17.40;45.40;;;;;;4866281;29;20237;-82
2021/03/16 00:39:22;;;;;;;3.38;2.35;;;17.40;45.30;;;;;;4867977;29;20188;-81
2021/03/16 00:41:51;;;;;;;5.40;2.42;;;17.40;45.40;;;;;;4882249;29;20165;-82
2021/03/16 00:44:17;;;;;;;4.78;2.40;;;17.40;45.30;;;;;;4881846;29;20157;-82
2021/03/16 00:46:44;;;;;;;4.82;2.50;;;17.40;45.40;;;;;;4865932;29;20172;-82
2021/03/16 00:49:10;;;;;;;3.90;2.55;;;17.30;45.40;;;;;;4866200;29;20172;-82
2021/03/16 00:51:36;;;;;;;4.10;2.55;;;17.30;45.40;;;;;;4866086;29;20168;-82
2021/03/16 00:54:02;;;;;;;3.45;2.50;;;17.30;45.50;;;;;;4866506;29;20648;-82
2021/03/16 00:56:28;;;;;;;4.00;2.33;;;17.30;45.50;;;;;;4866951;29;20214;-82
2021/03/16 00:58:56;;;;;;;4.15;2.20;;;17.20;45.40;;;;;;4882661;29;20621;-82
2021/03/16 01:01:31;;;;;;;3.78;2.50;;;17.30;45.60;;;;;;4881701;29;20157;-82
2021/03/16 01:03:58;;;;;;;3.20;2.38;;;17.30;45.40;;;;;;4867135;29;20164;-81
2021/03/16 01:06:24;;;;;;;4.68;2.38;;;17.30;45.40;;;;;;4850529;29;20169;-82
2021/03/16 01:08:59;;;;;;;5.55;2.42;;;17.30;45.40;;;;;;4868322;29;20610;-82
2021/03/16 01:11:25;;;;;;;4.47;2.67;;;17.30;45.50;;;;;;4867892;29;20165;-82
2021/03/16 01:13:50;;;;;;;5.78;2.38;;;17.30;45.60;;;;;;4882348;29;20161;-82
2021/03/16 01:16:17;;;;;;;2.55;2.30;;;17.30;45.50;;;;;;4882321;29;20197;-81
2021/03/16 01:18:43;;;;;;;5.70;2.60;;;17.30;45.50;;;;;;4866170;29;20172;-82
2021/03/16 01:21:10;;;;;;;4.63;2.20;;;17.30;45.60;;;;;;4882086;29;20178;-82
2021/03/16 01:23:36;;;;;;;3.28;2.20;;;17.30;45.60;;;;;;4866188;29;20164;-82
2021/03/16 01:26:05;;;;;;;3.92;2.50;;;17.30;45.40;;;;;;4881216;29;20256;-83
2021/03/16 01:28:35;;;;;;;3.65;2.33;;;17.30;45.50;;;;;;4866122;29;20173;-82
2021/03/16 01:31:01;;;;;;;3.15;2.30;;;17.30;45.60;;;;;;4865034;29;20176;-82
2021/03/16 01:33:27;;;;;;;5.35;2.47;;;17.30;45.60;;;;;;4880794;29;20169;-82
2021/03/16 01:35:54;;;;;;;5.57;2.60;;;17.30;45.60;;;;;;4865287;29;20219;-82
2021/03/16 01:38:20;;;;;;;5.15;2.72;;;17.20;45.60;;;;;;4880641;29;20157;-82
2021/03/16 01:40:49;;;;;;;4.85;2.60;;;17.30;45.50;;;;;;4849699;29;20200;-82
2021/03/16 01:43:19;;;;;;;4.45;2.25;;;17.20;45.70;;;;;;4880310;29;20157;-82
2021/03/16 01:45:46;;;;;;;3.78;2.70;;;17.20;45.70;;;;;;4865306;29;20200;-82
2021/03/16 01:48:24;;;;;;;4.63;2.50;;;17.20;45.60;;;;;;4880383;29;20168;-82
2021/03/16 01:50:50;;;;;;;4.20;2.70;;;17.20;45.60;;;;;;4849376;29;20181;-82
2021/03/16 01:53:18;;;;;;;5.03;2.40;;;17.20;45.50;;;;;;4880017;29;20176;-82
2021/03/16 01:55:45;;;;;;;4.60;2.50;;;17.20;45.60;;;;;;4863985;29;20254;-82
2021/03/16 01:58:11;;;;;;;3.50;2.55;;;17.20;45.70;;;;;;4864514;29;20277;-82
2021/03/16 02:00:39;;;;;;;4.57;2.60;;;17.20;45.60;;;;;;4864472;29;20185;-82
2021/03/16 02:03:07;;;;;;;3.75;2.58;;;17.30;45.50;;;;;;4850422;29;20569;-82
2021/03/16 02:05:33;;;;;;;3.67;2.53;;;17.30;45.60;;;;;;4880097;29;20169;-82
2021/03/16 02:08:19;;;;;;;3.38;2.53;;;17.20;45.60;;;;;;4866717;29;20510;-82
2021/03/16 02:11:03;;;;;;;3.50;2.30;;;17.20;45.60;;;;;;4865762;29;20183;-82
2021/03/16 02:13:53;;;;;;;3.47;2.35;;;17.20;45.70;;;;;;4882403;29;20233;-82
2021/03/16 02:16:23;;;;;;;3.25;2.40;;;17.20;45.70;;;;;;4850034;29;20229;-82
2021/03/16 02:18:53;;;;;;;3.42;2.53;;;17.20;45.70;;;;;;4881420;29;20158;-82
2021/03/16 02:21:28;;;;;;;4.60;2.40;;;17.20;45.70;;;;;;4880790;29;20166;-82
2021/03/16 02:24:03;;;;;;;4.78;2.10;;;17.20;45.70;;;;;;4866837;29;20176;-82
2021/03/16 02:26:29;;;;;;;3.55;2.40;;;17.20;45.70;;;;;;4865713;29;20172;-82
2021/03/16 02:29:06;;;;;;;3.63;2.35;;;17.20;45.70;;;;;;4866840;29;20165;-82
2021/03/16 02:31:32;;;;;;;3.80;2.30;;;17.20;45.60;;;;;;4849411;29;20235;-82
2021/03/16 02:33:59;;;;;;;4.05;2.70;;;17.20;45.70;;;;;;4865283;29;20185;-82
2021/03/16 02:36:24;;;;;;;3.83;2.50;;;17.20;45.70;;;;;;4865779;29;20200;-82
2021/03/16 02:38:52;;;;;;;2.70;2.30;;;17.20;45.60;;;;;;4881846;29;20268;-82
2021/03/16 02:41:19;;;;;;;3.40;2.35;;;17.20;45.70;;;;;;4864859;29;20168;-82
2021/03/16 02:43:46;;;;;;;3.22;2.33;;;17.20;45.70;;;;;;4865229;29;20173;-82
2021/03/16 02:46:12;;;;;;;3.72;2.33;;;17.20;45.80;;;;;;4864841;29;20200;-82
2021/03/16 02:48:38;;;;;;;4.43;2.40;;;17.20;45.80;;;;;;4881224;29;20161;-82
2021/03/16 02:51:14;;;;;;;4.03;2.85;;;17.20;45.80;;;;;;4849973;29;20173;-82
2021/03/16 02:53:40;;;;;;;3.85;2.50;;;17.20;45.70;;;;;;4850352;29;20236;-82
2021/03/16 02:56:07;;;;;;;3.47;2.22;;;17.20;45.70;;;;;;4879723;29;20212;-82
2021/03/16 02:58:42;;;;;;;3.97;2.60;;;17.20;45.70;;;;;;4865495;29;20180;-82
2021/03/16 03:01:08;;;;;;;3.38;2.38;;;17.20;45.80;;;;;;4849844;29;20272;-82
2021/03/16 03:03:38;;;;;;;2.97;2.50;;;17.20;45.80;;;;;;4864693;29;20177;-82
2021/03/16 03:06:06;;;;;;;3.92;2.30;;;17.20;45.70;;;;;;4850242;29;20185;-82
2021/03/16 03:08:35;;;;;;;5.15;2.92;;;17.20;45.70;;;;;;4849714;29;20185;-82
2021/03/16 03:11:02;;;;;;;5.82;2.42;;;17.20;45.70;;;;;;4849325;29;20216;-82
2021/03/16 03:13:29;;;;;;;4.47;2.72;;;17.20;45.80;;;;;;4864921;29;20171;-82
2021/03/16 03:16:04;;;;;;;3.25;2.50;;;17.20;45.80;;;;;;4864578;29;20196;-82
2021/03/16 03:18:31;;;;;;;3.22;2.25;;;17.20;45.70;;;;;;4848595;29;20179;-82
2021/03/16 03:21:10;;;;;;;2.80;2.30;;;17.20;45.70;;;;;;4849187;29;20233;-82
2021/03/16 03:23:36;;;;;;;3.45;2.30;;;17.20;45.70;;;;;;4865466;29;20259;-82
2021/03/16 03:26:03;;;;;;;3.22;2.00;;;17.20;45.70;;;;;;4865557;29;20680;-82
2021/03/16 03:28:30;;;;;;;6.07;2.83;;;17.20;45.80;;;;;;4864573;29;20157;-82
2021/03/16 03:30:59;;;;;;;2.78;2.20;;;17.20;45.80;;;;;;4849837;29;20192;-82
2021/03/16 03:33:26;;;;;;;3.50;2.60;;;17.20;45.80;;;;;;4864677;29;20236;-82
2021/03/16 03:35:55;;;;;;;4.20;2.80;;;17.20;45.70;;;;;;4864818;29;20699;-82
2021/03/16 03:38:22;;;;;;;2.80;2.40;;;17.20;45.70;;;;;;4866137;29;20244;-82
2021/03/16 03:40:49;;;;;;;3.60;2.28;;;17.20;45.80;;;;;;4880793;29;20293;-82
2021/03/16 03:43:17;;;;;;;3.30;2.30;;;17.20;45.70;;;;;;4865659;29;20237;-82
2021/03/16 03:45:43;;;;;;;3.58;2.40;;;17.20;45.90;;;;;;4864718;29;20568;-82
2021/03/16 03:48:13;;;;;;;4.43;2.50;;;17.20;45.80;;;;;;4864496;29;20177;-82
2021/03/16 03:50:41;;;;;;;2.90;2.10;;;17.10;45.80;;;;;;4880558;29;20198;-82
2021/03/16 03:53:10;;;;;;;5.47;2.60;;;17.20;45.90;;;;;;4880807;29;20617;-82
2021/03/16 03:55:41;;;;;;;3.63;2.50;;;17.10;45.70;;;;;;4850373;29;20228;-82
2021/03/16 03:58:16;;;;;;;3.80;2.55;;;17.20;45.80;;;;;;4863974;29;20153;-82
2021/03/16 04:00:51;;;;;;;3.65;2.13;;;17.10;45.80;;;;;;4864912;29;20157;-83
2021/03/16 04:03:18;;;;;;;5.30;2.45;;;17.10;45.80;;;;;;4865310;29;20167;-82
2021/03/16 04:05:47;;;;;;;3.05;2.25;;;17.10;45.70;;;;;;4864802;29;20168;-82
2021/03/16 04:08:13;;;;;;;3.65;2.33;;;17.10;45.80;;;;;;4864609;29;20172;-82
2021/03/16 04:10:44;;;;;;;2.55;2.15;;;17.10;45.80;;;;;;4879592;29;20241;-82
2021/03/16 04:13:09;;;;;;;4.07;2.47;;;17.10;45.90;;;;;;4880241;29;20161;-82
2021/03/16 04:15:36;;;;;;;3.58;2.30;;;17.10;45.90;;;;;;4864812;29;20283;-82
2021/03/16 04:18:02;;;;;;;3.85;2.50;;;17.10;46.00;;;;;;4864546;29;20268;-82
2021/03/16 04:20:33;;;;;;;3.22;2.33;;;17.10;46.00;;;;;;4864195;29;20608;-82
2021/03/16 04:22:59;;;;;;;3.55;2.45;;;17.10;45.90;;;;;;4864199;29;20169;-82
2021/03/16 04:25:24;;;;;;;3.58;2.50;;;17.10;45.80;;;;;;4880258;29;20599;-82
2021/03/16 04:27:53;;;;;;;3.83;2.42;;;17.10;46.00;;;;;;4879657;29;20187;-82
2021/03/16 04:30:20;;;;;;;4.03;2.38;;;17.10;45.80;;;;;;4848837;29;20633;-82
2021/03/16 04:32:47;;;;;;;4.50;2.60;;;17.10;45.90;;;;;;4848978;29;20319;-82
2021/03/16 04:35:14;;;;;;;3.70;2.50;;;17.10;45.80;;;;;;4863823;29;20245;-82
2021/03/16 04:37:42;;;;;;;3.58;2.33;;;17.10;45.90;;;;;;4879475;29;20187;-82
2021/03/16 04:40:08;;;;;;;3.17;2.38;;;17.10;46.00;;;;;;4864391;29;20165;-82
2021/03/16 04:42:40;;;;;;;4.28;2.60;;;17.10;46.00;;;;;;4864031;29;20177;-82
2021/03/16 04:45:09;;;;;;;4.00;2.50;;;17.10;45.90;;;;;;4849790;29;20192;-82
2021/03/16 04:47:36;;;;;;;3.92;2.47;;;17.10;46.00;;;;;;4863718;29;20176;-82
2021/03/16 04:50:11;;;;;;;4.35;2.80;;;17.10;46.00;;;;;;4863603;29;20164;-82
2021/03/16 04:52:38;;;;;;;4.53;2.38;;;17.10;45.90;;;;;;4865668;29;20157;-82
2021/03/16 04:55:04;;;;;;;3.45;2.55;;;17.10;45.80;;;;;;4863885;29;20192;-82
2021/03/16 04:57:39;;;;;;;3.42;2.38;;;17.10;45.80;;;;;;4864317;29;20577;-82
2021/03/16 05:00:06;;;;;;;3.55;2.30;;;17.10;45.60;;;;;;4863633;29;20164;-82
2021/03/16 05:02:40;;;;;;;3.53;2.65;;;17.20;45.70;;;;;;4847990;29;20184;-82
2021/03/16 05:05:11;;;;;;;3.17;2.40;;;17.10;45.70;;;;;;4863561;29;20161;-82
2021/03/16 05:07:38;;;;;;;3.95;2.70;;;17.10;45.60;;;;;;4863972;29;20252;-82
2021/03/16 05:10:06;;;;;;;2.97;2.33;;;17.20;45.00;;;;;;4852427;29;20198;-82
2021/03/16 05:12:36;;;;;;;4.68;2.90;;;17.20;45.00;;;;;;4868692;29;20207;-82
2021/03/16 05:15:10;;;;;;;3.60;2.50;;;17.20;45.20;;;;;;4853439;29;20184;-82
2021/03/16 05:17:36;;;;;;;3.50;2.60;;;17.20;45.00;;;;;;4868568;29;20522;-82
2021/03/16 05:20:04;;;;;;;3.22;2.50;;;17.20;45.10;;;;;;4869366;29;20628;-82
2021/03/16 05:22:33;;;;;;;3.50;2.50;;;17.20;45.30;;;;;;4867758;29;20184;-82
2021/03/16 05:24:59;;;;;;;3.72;2.70;;;17.20;45.10;;;;;;4853875;29;20684;-82
2021/03/16 05:27:25;;;;;;;3.55;2.67;;;17.30;45.00;;;;;;4868220;29;20165;-82
2021/03/16 05:29:52;;;;;;;4.05;2.53;;;17.20;44.90;;;;;;4867698;29;20532;-82
2021/03/16 05:32:22;;;;;;;5.28;2.78;;;17.20;45.00;;;;;;4867707;29;20220;-82
2021/03/16 05:34:57;;;;;;;3.67;2.67;;;17.20;45.10;;;;;;4869827;29;20225;-82
2021/03/16 05:37:25;;;;;;;3.15;2.53;;;17.20;45.00;;;;;;4866865;29;20413;-82
2021/03/16 05:39:52;;;;;;;3.30;2.65;;;17.30;44.90;;;;;;4867166;29;20197;-82
2021/03/16 05:42:41;;;;;;;4.05;2.50;;;17.20;45.00;;;;;;4866940;29;20265;-82
2021/03/16 05:45:07;;;;;;;3.38;2.47;;;17.20;44.70;;;;;;4866504;29;20161;-82
2021/03/16 05:47:38;;;;;;;4.28;2.80;;;17.30;44.60;;;;;;4849658;29;20200;-82
2021/03/16 05:50:05;;;;;;;4.15;2.72;;;17.30;44.60;;;;;;4865509;29;20168;-82
2021/03/16 05:52:32;;;;;;;3.92;2.60;;;17.40;44.30;;;;;;4865516;29;20172;-82
2021/03/16 05:55:00;;;;;;;3.70;2.58;;;17.40;44.60;;;;;;4865755;29;20165;-82
2021/03/16 05:57:27;;;;;;;3.38;2.50;;;17.30;44.70;;;;;;4865105;29;20169;-82
2021/03/16 05:59:54;;;;;;;4.13;2.88;;;17.20;44.70;;;;;;4864951;29;20173;-82
2021/03/16 06:02:22;;;;;;;3.22;2.33;;;17.20;44.70;;;;;;4865412;29;20161;-82
2021/03/16 06:04:50;;;;;;;3.88;2.80;;;17.20;44.60;;;;;;4865162;29;20185;-81
2021/03/16 06:07:25;;;;;;;3.38;2.88;;;17.30;45.00;;;;;;4863227;29;20637;-83
2021/03/16 06:09:51;;;;;;;4.68;2.92;;;17.30;44.40;;;;;;4847202;29;20259;-82
2021/03/16 06:12:30;;;;;;;4.03;3.13;;;17.30;44.60;;;;;;4849762;29;20578;-81
2021/03/16 06:14:57;;;;;;;4.35;2.83;;;17.30;44.20;;;;;;4833964;29;20173;-82
2021/03/16 06:17:23;;;;;;;3.25;2.55;;;17.30;44.20;;;;;;4834557;29;20401;-82
2021/03/16 06:19:51;;;;;;;4.68;3.03;;;17.30;44.20;;;;;;4853200;29;20162;-82
2021/03/16 06:22:19;;;;;;;3.67;2.65;;;17.40;43.90;;;;;;4851654;29;20169;-82
2021/03/16 06:24:47;;;;;;;4.43;3.08;;;17.30;44.10;;;;;;4852549;29;20161;-82
2021/03/16 06:27:25;;;;;;;4.55;3.15;;;17.40;43.80;;;;;;4834598;29;20173;-82
2021/03/16 06:29:55;;;;;;;4.20;2.58;;;17.40;44.00;;;;;;4848905;29;20244;-81
2021/03/16 06:32:22;;;;;;;3.72;2.72;;;17.40;43.90;;;;;;4863584;29;20235;-82
2021/03/16 06:35:02;;;;;;;4.03;2.75;;;17.40;43.90;;;;;;4834749;29;20184;-81
2021/03/16 06:37:37;;;;;;;3.95;3.08;;;17.40;43.80;;;;;;4833496;29;20552;-82
2021/03/16 06:40:05;;;;;;;4.30;2.80;;;17.40;43.80;;;;;;4848386;29;20333;-81
2021/03/16 06:42:40;;;;;;;5.32;2.85;;;17.40;43.90;;;;;;4864294;29;20177;-82
2021/03/16 06:45:07;;;;;;;3.45;2.60;;;17.40;43.70;;;;;;4866164;29;20243;-82
2021/03/16 06:47:46;;;;;;;4.00;2.75;;;17.40;43.50;;;;;;4864629;29;20221;-81
2021/03/16 06:50:34;;;;;;;3.95;2.97;;;17.50;43.60;;;;;;4865310;29;20609;-82
2021/03/16 06:53:00;;;;;;;4.00;2.80;;;17.40;43.80;;;;;;4879630;29;20185;-81
2021/03/16 06:55:26;;;;;;;3.95;3.10;;;17.50;44.20;;;;;;4865028;29;20530;-82
2021/03/16 06:58:02;;;;;;;4.90;3.25;;;17.50;43.70;;;;;;4848296;29;20181;-81
2021/03/16 07:00:28;;;;;;;3.58;2.72;;;17.50;43.60;;;;;;4862861;29;20156;-82
2021/03/16 07:02:54;;;;;;;3.42;2.80;;;17.50;43.60;;;;;;4851773;29;20161;-81
2021/03/16 07:05:35;;;;;;;4.85;3.03;;;17.50;43.60;;;;;;4867456;29;20217;-82
2021/03/16 07:08:02;;;;;;;3.63;2.80;;;17.50;43.70;;;;;;4867554;29;20165;-81
2021/03/16 07:10:30;;;;;;;5.22;2.78;;;17.60;44.40;;;;;;4853061;29;20157;-81
2021/03/16 07:13:17;;;;;;;3.45;2.72;;;17.50;43.50;;;;;;4852512;29;20181;-81
2021/03/16 07:15:53;;;;;;;4.22;3.00;;;17.50;43.50;;;;;;4852397;29;20204;-82
2021/03/16 07:18:27;;;;;;;4.40;2.90;;;17.60;43.50;;;;;;4866671;29;20157;-81
2021/03/16 07:21:30;;;;;;;4.32;2.80;;;17.50;43.50;;;;;;4835625;29;20655;-82
2021/03/16 07:24:09;;;;;;;3.75;2.70;;;17.60;43.30;;;;;;4790304;30;20190;-82
2021/03/16 07:26:56;;;;;;;5.03;2.70;;;17.60;43.30;;;;;;4774621;30;20253;-82
2021/03/16 07:29:28;;;;;;;6.22;2.75;;;17.60;43.30;;;;;;4775838;30;20644;-81
2021/03/16 07:31:57;;;;;;;2.78;2.40;;;17.60;43.20;;;;;;4774840;30;20273;-81
2021/03/16 07:34:31;;;;;;;3.40;2.60;;;17.60;43.20;;;;;;4776210;30;20206;-82
2021/03/16 07:36:57;;;;;;;3.92;2.83;;;17.70;43.00;;;;;;4775610;30;20569;-81
2021/03/16 07:39:25;;;;;;;3.72;2.63;;;17.60;43.00;;;;;;4778032;30;20211;-82
2021/03/16 07:42:10;;;;;;;3.10;2.53;;;17.60;43.00;;;;;;4778886;30;20167;-82
2021/03/16 07:45:24;;;;;;;3.25;2.55;;;17.70;43.10;;;;;;4812868;29;20301;-81
2021/03/16 07:47:52;;;;;;;3.60;2.70;;;17.60;43.10;;;;;;4815445;29;20189;-81
2021/03/16 07:50:39;;;;;;;4.40;2.70;;;17.60;43.20;;;;;;4786427;29;20183;-81
2021/03/16 08:16:57;;;;;;;4.32;2.60;;;17.70;43.00;;;;;;4872156;29;20208;-81
2021/03/16 08:19:47;;;;;;;3.35;2.33;;;17.70;43.10;;;;;;4842584;29;20213;-82
2021/03/16 08:25:52;;;;;;;6.40;2.53;;;17.70;43.00;;;;;;4875447;29;20197;-81
2021/03/16 08:28:28;;;;;;;4.50;2.65;;;17.80;42.80;;;;;;4825819;29;20208;-81
2021/03/16 08:31:12;;;;;;;3.45;2.42;;;17.80;42.80;;;;;;4855906;29;20165;-82
2021/03/16 08:47:41;;;;;;;3.60;2.15;;;18.00;42.50;;;;;;4744928;30;20239;-83
2021/03/16 08:56:53;;;;;;;4.05;2.17;;;17.90;42.80;;;;;;4759497;30;20227;-83
2021/03/16 08:59:22;;;;;;;3.60;2.20;;;17.90;42.70;;;;;;4731093;30;20271;-81
2021/03/16 09:05:54;;;;;;;3.90;2.47;;;17.90;42.70;;;;;;4741447;30;20164;-81
2021/03/16 09:11:57;;;;;;;5.55;2.38;;;17.80;42.90;;;;;;4815023;29;20170;-82
2021/03/16 09:17:51;;;;;;;3.22;2.10;;;18.00;42.80;;;;;;4871352;29;20207;-82
2021/03/16 09:27:23;;;;;;;4.45;2.25;;;18.00;42.50;;;;;;4815673;29;20368;-82
2021/03/16 09:30:24;;;;;;;7.05;2.95;;;18.10;42.50;;;;;;4785310;29;20194;-81
2021/03/16 09:32:57;;;;;;;3.53;2.33;;;18.10;42.50;;;;;;4795744;29;20230;-79
2021/03/16 09:35:32;;;;;;;4.10;2.20;;;18.00;42.60;;;;;;4781833;29;20174;-80
2021/03/16 09:37:57;;;;;;;3.85;2.00;;;18.10;42.40;;;;;;4812889;29;20189;-80
2021/03/16 09:40:37;;;;;;;3.42;2.20;;;18.20;42.20;;;;;;4813474;29;20596;-81
2021/03/16 09:43:04;;;;;;;3.22;2.00;;;18.20;42.10;;;;;;4812517;29;20218;-82
2021/03/16 09:45:32;;;;;;;3.85;1.98;;;18.20;42.30;;;;;;4812808;29;20198;-83
2021/03/16 09:48:02;;;;;;;2.97;2.10;;;18.20;42.20;;;;;;4782661;29;20277;-82
2021/03/16 09:50:44;;;;;;;6.22;2.20;;;18.20;42.10;;;;;;4796612;29;20214;-82
2021/03/16 09:53:15;;;;;;;3.72;2.17;;;18.20;42.00;;;;;;4783638;29;20183;-81
2021/03/16 09:55:43;;;;;;;3.47;2.05;;;18.20;42.10;;;;;;4796472;29;20225;-82
2021/03/16 09:58:28;;;;;;;3.03;2.17;;;18.10;42.40;;;;;;4797489;29;20186;-81
2021/03/16 10:00:54;;;;;;;4.45;1.92;;;18.10;42.60;;;;;;4779966;29;20562;-81
2021/03/16 10:03:26;;;;;;;2.88;2.30;;;18.10;42.60;;;;;;4839214;29;20206;-82
2021/03/16 10:06:05;;;;;;;3.17;1.80;;;18.00;42.60;;;;;;4867757;29;20153;-80
2021/03/16 10:08:31;;;;;;;6.43;2.10;;;18.10;42.70;;;;;;4870899;29;20164;-80
2021/03/16 10:14:33;;;;;;;2.75;1.75;;;18.10;42.30;;;;;;4865530;29;20191;-82
2021/03/16 10:17:00;;;;;;;3.00;2.15;;;18.20;42.30;;;;;;4851655;29;20203;-82
2021/03/16 10:19:28;;;;;;;2.00;1.80;;;18.20;42.30;;;;;;4866311;29;20161;-81
2021/03/16 10:22:09;;;;;;;3.63;1.98;;;18.20;42.20;;;;;;4849098;29;20211;-81
2021/03/16 10:25:07;;;;;;;3.42;1.88;;;18.10;42.50;;;;;;4850057;29;20207;-82
2021/03/16 10:27:33;;;;;;;2.40;1.80;;;17.90;42.80;;;;;;4848249;29;20177;-82
2021/03/16 10:30:35;;;;;;;3.78;2.10;;;18.00;42.50;;;;;;4864301;29;20189;-81
2021/03/16 10:33:55;;;;;;;;;;;;;;;;;;;;;
2021/03/16 10:36:23;;;;;;;2.85;1.90;;;18.00;42.60;;;;;;4867600;29;20288;-81
2021/03/16 10:38:55;;;;;;;3.88;2.00;;;18.10;42.30;;;;;;4865712;29;20169;-81
2021/03/16 10:41:47;;;;;;;4.18;1.80;;;18.10;42.40;;;;;;4866200;29;20169;-84
2021/03/16 10:44:17;;;;;;;2.72;2.03;;;18.10;42.50;;;;;;4866497;29;20161;-83
2021/03/16 10:47:05;;;;;;;3.60;2.00;;;18.10;42.50;;;;;;4865729;29;20169;-80
2021/03/16 10:51:10;;;;;;;;;;;;;;;;;;;;;
2021/03/16 10:53:48;;;;;;;2.30;2.00;;;18.10;42.20;;;;;;4802489;29;20250;-81
2021/03/16 10:56:36;;;;;;;2.00;1.65;;;18.20;42.30;;;;;;4765066;29;20224;-82
2021/03/16 10:59:02;;;;;;;2.63;2.10;;;18.20;42.10;;;;;;4791498;29;20171;-82
2021/03/16 11:01:32;;;;;;;2.30;1.70;;;18.20;42.30;;;;;;4775967;29;20244;-82
2021/03/16 11:03:58;;;;;;;2.60;2.00;;;18.10;42.20;;;;;;4776648;29;20167;-81
2021/03/16 11:06:32;;;;;;;2.10;1.77;;;18.20;42.20;;;;;;4775547;29;20193;-81
2021/03/16 11:08:57;;;;;;;3.33;1.73;;;18.20;41.90;;;;;;4806012;29;20231;-81
2021/03/16 11:11:24;;;;;;;2.53;1.92;;;18.30;41.70;;;;;;4804344;29;20183;-82
2021/03/16 11:14:06;;;;;;;4.00;1.80;;;18.30;41.70;;;;;;4808219;29;20218;-80
2021/03/16 11:17:10;;;;;;;2.20;1.70;;;18.30;41.80;;;;;;4808019;29;20251;-81
2021/03/16 11:20:19;;;;;;;3.70;1.92;;;18.40;41.70;;;;;;4754691;30;20268;-81
2021/03/16 11:22:56;;;;;;;2.38;1.80;;;18.30;42.00;;;;;;4757474;30;20172;-81
2021/03/16 11:26:03;;;;;;;2.65;1.70;;;18.30;41.70;;;;;;4754545;30;20238;-81
2021/03/16 11:35:19;;;;;;;2.78;1.75;;;18.30;41.90;;;;;;4841440;29;20222;-81
2021/03/16 11:38:30;;;;;;;2.85;1.80;;;18.40;41.90;;;;;;4816472;29;20272;-81
2021/03/16 11:51:09;;;;;;;2.72;1.98;;;18.30;41.90;;;;;;4845118;29;20169;-82
2021/03/16 11:53:40;;;;;;;1.75;1.65;;;18.40;41.60;;;;;;4812300;29;20169;-81
2021/03/16 12:03:15;;;;;;;1.92;1.63;;;18.20;42.00;;;;;;4771548;30;20236;-83
2021/03/16 12:09:33;;;;;;;2.03;1.50;;;18.20;41.70;;;;;;4772250;30;20207;-82
2021/03/16 12:18:45;;;;;;;3.92;1.88;;;18.20;41.50;;;;;;4770807;30;20564;-82
2021/03/16 12:35:35;;;;;;;3.65;1.95;;;18.20;41.30;;;;;;4774665;30;20652;-82
2021/03/16 12:52:24;;;;;;;2.30;1.90;;;18.20;41.00;;;;;;4857243;29;20179;-81
2021/03/16 12:54:51;;;;;;;3.75;2.00;;;18.10;41.20;;;;;;4885069;29;20176;-81
2021/03/16 12:57:19;;;;;;;2.50;1.75;;;18.20;41.00;;;;;;4860568;29;20333;-81
2021/03/16 13:00:27;;;;;;;2.92;1.95;;;18.20;40.80;;;;;;4854488;29;20180;-82
2021/03/16 13:03:24;;;;;;;1.90;1.40;;;18.10;40.80;;;;;;4801050;29;20183;-82
2021/03/16 13:06:03;;;;;;;4.50;1.60;;;18.10;41.00;;;;;;4808407;29;20175;-81
2021/03/16 13:22:46;;;;;;;;;;;;;;;;;;;;;
2021/03/16 13:32:01;;;;;;;4.00;1.55;;;18.20;40.70;;;;;;4808482;29;20187;-81
2021/03/16 13:34:50;;;;;;;2.47;1.50;;;18.10;40.50;;;;;;4793308;29;20257;-81
2021/03/16 13:37:48;;;;;;;7.63;1.90;;;18.20;40.40;;;;;;4791702;29;20230;-82
2021/03/16 13:40:39;;;;;;;4.70;2.10;;;18.10;40.50;;;;;;4894116;29;20199;-81
2021/03/16 13:43:14;;;;;;;2.45;1.40;;;18.00;40.50;;;;;;4870235;29;20191;-81
2021/03/16 13:46:17;;;;;;;6.93;1.48;;;18.00;40.50;;;;;;4837124;29;20567;-81
2021/03/16 13:53:04;;;;;;;;;;;;;;;;;;;;;
2021/03/16 13:55:43;;;;;;;;;;;;;;;;;;;;;
2021/03/16 13:58:29;;;;;;;;;;;;;;;;;;;;;
2021/03/16 14:01:51;;;;;;;4.93;1.50;;;18.00;40.00;;;;;;4859289;29;20259;-81
2021/03/16 14:04:17;;;;;;;4.50;1.42;;;18.10;40.10;;;;;;4830323;29;20190;-81
2021/03/16 14:06:56;;;;;;;3.65;1.33;;;18.10;40.00;;;;;;4815023;29;20272;-82
2021/03/16 14:09:35;;;;;;;5.35;1.65;;;18.10;40.20;;;;;;4828845;29;20261;-81
2021/03/16 14:12:12;;;;;;;3.50;1.60;;;17.90;40.40;;;;;;4814490;29;20701;-81
2021/03/16 14:14:41;;;;;;;3.88;1.55;;;17.90;40.40;;;;;;4818067;29;20184;-80
2021/03/16 14:17:07;;;;;;;4.40;1.40;;;17.90;40.30;;;;;;4833816;29;20200;-81
2021/03/16 14:19:37;;;;;;;4.63;1.50;;;17.90;40.20;;;;;;4819177;29;20254;-81
2021/03/16 14:22:32;;;;;;;3.67;1.70;;;18.00;40.10;;;;;;4817220;29;20185;-81
2021/03/16 14:25:10;;;;;;;1.60;1.23;;;17.90;40.00;;;;;;4815547;29;20194;-81
2021/03/16 14:27:36;;;;;;;2.40;1.50;;;18.00;40.00;;;;;;4799334;29;20174;-81
2021/03/16 14:30:09;;;;;;;3.80;1.70;;;18.00;40.00;;;;;;4798400;29;20231;-81
2021/03/16 14:32:53;;;;;;;3.58;1.67;;;18.00;39.70;;;;;;4810620;29;20250;-80
2021/03/16 14:35:35;;;;;;;2.55;1.35;;;18.00;39.80;;;;;;4797221;29;20179;-81
2021/03/16 14:38:13;;;;;;;2.25;1.38;;;18.10;39.50;;;;;;4824881;29;20213;-80
2021/03/16 14:41:08;;;;;;;3.28;1.50;;;18.20;39.50;;;;;;4818902;29;20531;-81
2021/03/16 14:43:46;;;;;;;2.58;1.20;;;18.20;39.50;;;;;;4818186;29;20264;-80
2021/03/16 14:46:15;;;;;;;2.10;1.27;;;18.10;39.50;;;;;;4840141;29;20528;-81
2021/03/16 14:48:50;;;;;;;3.53;1.27;;;18.10;39.50;;;;;;4822350;29;20181;-80
2021/03/16 14:51:18;;;;;;;3.05;1.33;;;18.00;39.60;;;;;;4838256;29;20177;-82
2021/03/16 14:53:46;;;;;;;2.72;1.40;;;18.10;39.60;;;;;;4822569;29;20204;-82
2021/03/16 14:56:30;;;;;;;2.13;1.40;;;18.00;39.70;;;;;;4837531;29;20209;-82
2021/03/16 14:59:07;;;;;;;3.10;1.48;;;17.90;39.90;;;;;;4837776;29;20157;-81
2021/03/16 15:01:33;;;;;;;3.95;1.50;;;18.00;39.80;;;;;;4822546;29;20556;-81
2021/03/16 15:04:02;;;;;;;3.05;1.38;;;18.00;39.70;;;;;;4836726;29;20530;-81
2021/03/16 15:07:15;;;;;;;3.17;1.38;;;18.00;39.70;;;;;;4821661;29;20174;-81
2021/03/16 15:24:03;;;;;;;3.10;1.27;;;18.20;39.30;;;;;;4848414;29;20165;-81
2021/03/16 15:30:33;;;;;;;;;;;;;;;;;;;;;
2021/03/16 15:33:12;;;;;;;3.38;1.17;;;18.20;39.10;;;;;;4812975;29;20262;-78
2021/03/16 15:35:42;;;;;;;1.75;1.20;;;18.20;39.10;;;;;;4785775;29;20584;-82
2021/03/16 15:38:09;;;;;;;3.58;1.27;;;18.10;39.10;;;;;;4802459;29;20205;-82
2021/03/16 15:40:34;;;;;;;5.20;1.55;;;18.10;39.20;;;;;;4783415;29;20197;-82
2021/03/16 15:43:00;;;;;;;2.20;1.20;;;18.10;39.20;;;;;;4797061;29;20540;-82
2021/03/16 15:45:39;;;;;;;;;;;;;;;;;;;;;
2021/03/16 15:48:05;;;;;;;2.50;1.20;;;18.10;39.60;;;;;;4817439;29;20233;-81
2021/03/16 15:50:35;;;;;;;6.20;1.52;;;18.10;39.30;;;;;;4800617;29;20224;-83
2021/03/16 15:53:09;;;;;;;2.28;1.20;;;18.20;39.20;;;;;;4805753;29;20181;-81
2021/03/16 15:55:44;;;;;;;3.25;1.30;;;18.20;39.20;;;;;;4805424;29;20185;-81
2021/03/16 15:58:10;;;;;;;3.55;1.33;;;18.20;39.20;;;;;;4799470;29;20182;-81
2021/03/16 16:00:38;;;;;;;4.90;1.40;;;18.20;39.20;;;;;;4798750;29;20634;-82
2021/03/16 16:03:21;;;;;;;1.63;1.10;;;18.30;39.00;;;;;;4817082;29;20246;-82
2021/03/16 16:06:24;;;;;;;4.05;1.50;;;18.30;38.90;;;;;;4828776;29;20662;-81
2021/03/16 16:09:07;;;;;;;2.35;1.00;;;18.30;39.00;;;;;;4829289;29;20268;-82
2021/03/16 16:11:39;;;;;;;2.20;1.33;;;18.30;39.00;;;;;;4855321;29;20169;-81
2021/03/16 16:14:12;;;;;;;3.13;1.30;;;18.30;39.10;;;;;;4839067;29;20187;-81
2021/03/16 16:16:40;;;;;;;2.83;1.10;;;18.20;39.20;;;;;;4836203;29;20664;-81
2021/03/16 16:19:24;;;;;;;3.33;1.13;;;18.30;40.40;;;;;;4855180;29;20165;-82
2021/03/16 16:22:10;;;;;;;4.18;1.05;;;18.40;38.90;;;;;;4837333;29;20207;-80